Pointe-des-Monts, Canada
Current Conditions -  °F | °C
As of 6:00 PM on Friday 31 Oct 2014 (Local Time) from CYBC Reporting Station
Broken Clouds Broken Clouds  
Wind Chill: 30°   Ceiling: 20000
Heat Index: 36°   Visibility: 9mi
Dew Point: 30°   Wind: 7mph
Humidity: 81%   Direction: 250°WSW
Pressure: 30.13"   Gusts: NA
Location:  49.32°N, 67.38°W
Report Text: CYBC 312200Z AUTO 25006KT 9SM FEW055 BKN200 02/M01 A3013 RMK SLP203
Loading
Personal Weather Stations






























Interactive Weather Map
Tropical Storm Tracking
New forecast layout! Learn more

10-Day Weather Forecast

Advertisements
Track Severe Weather on mobile